sensor_id;sensor_type;location;lat;lon;timestamp;temperature;humidity
62339;DHT22;48368;53.406;6.214;2023-05-20T00:00:34;12.10;99.90
62339;DHT22;48368;53.406;6.214;2023-05-20T00:03:04;12.10;99.90
62339;DHT22;48368;53.406;6.214;2023-05-20T00:05:29;12.10;99.90
62339;DHT22;48368;53.406;6.214;2023-05-20T00:07:58;12.10;99.90
62339;DHT22;48368;53.406;6.214;2023-05-20T00:10:24;12.10;99.90
62339;DHT22;48368;53.406;6.214;2023-05-20T00:12:50;12.10;99.90
62339;DHT22;48368;53.406;6.214;2023-05-20T00:15:16;12.00;99.90
62339;DHT22;48368;53.406;6.214;2023-05-20T00:17:41;12.00;99.90
62339;DHT22;48368;53.406;6.214;2023-05-20T00:20:07;12.00;99.90
62339;DHT22;48368;53.406;6.214;2023-05-20T00:22:33;12.00;99.90
62339;DHT22;48368;53.406;6.214;2023-05-20T00:24:59;12.00;99.90
62339;DHT22;48368;53.406;6.214;2023-05-20T00:27:24;12.00;99.90
62339;DHT22;48368;53.406;6.214;2023-05-20T00:29:50;12.00;99.90
62339;DHT22;48368;53.406;6.214;2023-05-20T00:32:16;12.00;99.90
62339;DHT22;48368;53.406;6.214;2023-05-20T00:34:42;12.00;99.90
62339;DHT22;48368;53.406;6.214;2023-05-20T00:37:07;12.00;99.90
62339;DHT22;48368;53.406;6.214;2023-05-20T00:39:33;12.00;99.90
62339;DHT22;48368;53.406;6.214;2023-05-20T00:41:59;12.00;99.90
62339;DHT22;48368;53.406;6.214;2023-05-20T00:44:27;12.00;99.90
62339;DHT22;48368;53.406;6.214;2023-05-20T00:46:53;12.00;99.90
62339;DHT22;48368;53.406;6.214;2023-05-20T00:49:19;11.90;99.90
62339;DHT22;48368;53.406;6.214;2023-05-20T00:51:46;11.90;99.90
62339;DHT22;48368;53.406;6.214;2023-05-20T00:54:18;11.90;99.90
62339;DHT22;48368;53.406;6.214;2023-05-20T00:56:44;11.90;99.90
62339;DHT22;48368;53.406;6.214;2023-05-20T00:59:10;11.90;99.90
62339;DHT22;48368;53.406;6.214;2023-05-20T01:01:36;11.90;99.90
62339;DHT22;48368;53.406;6.214;2023-05-20T01:04:03;11.90;99.90
62339;DHT22;48368;53.406;6.214;2023-05-20T01:06:28;11.90;99.90
62339;DHT22;48368;53.406;6.214;2023-05-20T01:08:54;11.90;99.90
62339;DHT22;48368;53.406;6.214;2023-05-20T01:11:31;11.90;99.90
62339;DHT22;48368;53.406;6.214;2023-05-20T01:14:02;11.90;99.90
62339;DHT22;48368;53.406;6.214;2023-05-20T01:16:31;11.80;99.90
62339;DHT22;48368;53.406;6.214;2023-05-20T01:18:58;11.90;99.90
62339;DHT22;48368;53.406;6.214;2023-05-20T01:21:29;11.90;99.90
62339;DHT22;48368;53.406;6.214;2023-05-20T01:23:55;11.80;99.90
62339;DHT22;48368;53.406;6.214;2023-05-20T01:26:21;11.80;99.90
62339;DHT22;48368;53.406;6.214;2023-05-20T01:28:51;11.80;99.90
62339;DHT22;48368;53.406;6.214;2023-05-20T01:31:25;11.80;99.90
62339;DHT22;48368;53.406;6.214;2023-05-20T01:33:55;11.90;99.90
62339;DHT22;48368;53.406;6.214;2023-05-20T01:36:22;11.80;99.90
62339;DHT22;48368;53.406;6.214;2023-05-20T01:38:50;11.80;99.90
62339;DHT22;48368;53.406;6.214;2023-05-20T01:41:16;11.80;99.90
62339;DHT22;48368;53.406;6.214;2023-05-20T01:43:43;11.80;99.90
62339;DHT22;48368;53.406;6.214;2023-05-20T01:46:09;11.90;99.90
62339;DHT22;48368;53.406;6.214;2023-05-20T01:48:34;11.80;99.90
62339;DHT22;48368;53.406;6.214;2023-05-20T01:51:00;11.90;99.90
62339;DHT22;48368;53.406;6.214;2023-05-20T01:53:26;11.80;99.90
62339;DHT22;48368;53.406;6.214;2023-05-20T01:55:51;11.90;99.90
62339;DHT22;48368;53.406;6.214;2023-05-20T01:58:17;11.90;99.90
62339;DHT22;48368;53.406;6.214;2023-05-20T02:00:43;11.90;99.90
62339;DHT22;48368;53.406;6.214;2023-05-20T02:03:08;11.80;99.90
62339;DHT22;48368;53.406;6.214;2023-05-20T02:05:34;11.80;99.90
62339;DHT22;48368;53.406;6.214;2023-05-20T02:08:00;11.80;99.90
62339;DHT22;48368;53.406;6.214;2023-05-20T02:10:25;11.80;99.90
62339;DHT22;48368;53.406;6.214;2023-05-20T02:12:51;11.80;99.90
62339;DHT22;48368;53.406;6.214;2023-05-20T02:15:17;11.80;99.90
62339;DHT22;48368;53.406;6.214;2023-05-20T02:17:42;11.80;99.90
62339;DHT22;48368;53.406;6.214;2023-05-20T02:20:17;11.70;99.90
62339;DHT22;48368;53.406;6.214;2023-05-20T02:22:43;11.70;99.90
62339;DHT22;48368;53.406;6.214;2023-05-20T02:25:09;11.70;99.90
62339;DHT22;48368;53.406;6.214;2023-05-20T02:27:34;11.70;99.90
62339;DHT22;48368;53.406;6.214;2023-05-20T02:30:00;11.70;99.90
62339;DHT22;48368;53.406;6.214;2023-05-20T02:32:26;11.70;99.90
62339;DHT22;48368;53.406;6.214;2023-05-20T02:34:56;11.60;99.90
62339;DHT22;48368;53.406;6.214;2023-05-20T02:37:21;11.60;99.90
62339;DHT22;48368;53.406;6.214;2023-05-20T02:39:47;11.60;99.90
62339;DHT22;48368;53.406;6.214;2023-05-20T02:42:12;11.60;99.90
62339;DHT22;48368;53.406;6.214;2023-05-20T02:44:38;11.60;99.90
62339;DHT22;48368;53.406;6.214;2023-05-20T02:47:04;11.60;99.90
62339;DHT22;48368;53.406;6.214;2023-05-20T02:49:29;11.60;99.90
62339;DHT22;48368;53.406;6.214;2023-05-20T02:51:55;11.50;99.90
62339;DHT22;48368;53.406;6.214;2023-05-20T02:54:21;11.50;99.90
62339;DHT22;48368;53.406;6.214;2023-05-20T02:56:47;11.50;99.90
62339;DHT22;48368;53.406;6.214;2023-05-20T02:59:12;11.50;99.90
62339;DHT22;48368;53.406;6.214;2023-05-20T03:01:38;11.50;99.90
62339;DHT22;48368;53.406;6.214;2023-05-20T03:04:17;11.50;99.90
62339;DHT22;48368;53.406;6.214;2023-05-20T03:06:44;11.50;99.90
62339;DHT22;48368;53.406;6.214;2023-05-20T03:09:10;11.40;99.90
62339;DHT22;48368;53.406;6.214;2023-05-20T03:11:36;11.40;99.90
62339;DHT22;48368;53.406;6.214;2023-05-20T03:14:02;11.40;99.90
62339;DHT22;48368;53.406;6.214;2023-05-20T03:16:27;11.40;99.90
62339;DHT22;48368;53.406;6.214;2023-05-20T03:18:53;11.40;99.90
62339;DHT22;48368;53.406;6.214;2023-05-20T03:21:19;11.30;99.90
62339;DHT22;48368;53.406;6.214;2023-05-20T03:23:48;11.40;99.90
62339;DHT22;48368;53.406;6.214;2023-05-20T03:26:13;11.40;99.90
62339;DHT22;48368;53.406;6.214;2023-05-20T03:28:39;11.30;99.90
62339;DHT22;48368;53.406;6.214;2023-05-20T03:31:05;11.30;99.90
62339;DHT22;48368;53.406;6.214;2023-05-20T03:33:33;11.30;99.90
62339;DHT22;48368;53.406;6.214;2023-05-20T03:35:59;11.30;99.90
62339;DHT22;48368;53.406;6.214;2023-05-20T03:38:25;11.20;99.90
62339;DHT22;48368;53.406;6.214;2023-05-20T03:40:53;11.20;99.90
62339;DHT22;48368;53.406;6.214;2023-05-20T03:43:19;11.20;99.90
62339;DHT22;48368;53.406;6.214;2023-05-20T03:45:45;11.20;99.90
62339;DHT22;48368;53.406;6.214;2023-05-20T03:48:10;11.20;99.90
62339;DHT22;48368;53.406;6.214;2023-05-20T03:50:36;11.20;99.90
62339;DHT22;48368;53.406;6.214;2023-05-20T03:53:02;11.20;99.90
62339;DHT22;48368;53.406;6.214;2023-05-20T03:55:27;11.20;99.90
62339;DHT22;48368;53.406;6.214;2023-05-20T03:57:53;11.20;99.90
62339;DHT22;48368;53.406;6.214;2023-05-20T04:00:19;11.20;99.90
62339;DHT22;48368;53.406;6.214;2023-05-20T04:02:48;11.20;99.90
62339;DHT22;48368;53.406;6.214;2023-05-20T04:05:13;11.20;99.90
62339;DHT22;48368;53.406;6.214;2023-05-20T04:07:39;11.20;99.90
62339;DHT22;48368;53.406;6.214;2023-05-20T04:10:05;11.20;99.90
62339;DHT22;48368;53.406;6.214;2023-05-20T04:12:31;11.20;99.90
62339;DHT22;48368;53.406;6.214;2023-05-20T04:14:58;11.20;99.90
62339;DHT22;48368;53.406;6.214;2023-05-20T04:17:29;11.20;99.90
62339;DHT22;48368;53.406;6.214;2023-05-20T04:19:56;11.10;99.90
62339;DHT22;48368;53.406;6.214;2023-05-20T04:22:22;11.10;99.90
62339;DHT22;48368;53.406;6.214;2023-05-20T04:24:51;11.20;99.90
62339;DHT22;48368;53.406;6.214;2023-05-20T04:27:17;11.20;99.90
62339;DHT22;48368;53.406;6.214;2023-05-20T04:29:42;11.20;99.90
62339;DHT22;48368;53.406;6.214;2023-05-20T04:32:17;11.20;99.90
62339;DHT22;48368;53.406;6.214;2023-05-20T04:34:43;11.20;99.90
62339;DHT22;48368;53.406;6.214;2023-05-20T04:37:10;11.30;99.90
62339;DHT22;48368;53.406;6.214;2023-05-20T04:39:35;11.20;99.90
62339;DHT22;48368;53.406;6.214;2023-05-20T04:42:02;11.20;99.90
62339;DHT22;48368;53.406;6.214;2023-05-20T04:44:28;11.20;99.90
62339;DHT22;48368;53.406;6.214;2023-05-20T04:46:54;11.30;99.90
62339;DHT22;48368;53.406;6.214;2023-05-20T04:49:22;11.30;99.90
62339;DHT22;48368;53.406;6.214;2023-05-20T04:51:52;11.30;99.90
62339;DHT22;48368;53.406;6.214;2023-05-20T04:54:20;11.30;99.90
62339;DHT22;48368;53.406;6.214;2023-05-20T04:56:46;11.40;99.90
62339;DHT22;48368;53.406;6.214;2023-05-20T04:59:12;11.40;99.90
62339;DHT22;48368;53.406;6.214;2023-05-20T05:01:37;11.50;99.90
62339;DHT22;48368;53.406;6.214;2023-05-20T05:04:07;11.60;99.90
62339;DHT22;48368;53.406;6.214;2023-05-20T05:06:33;11.60;99.90
62339;DHT22;48368;53.406;6.214;2023-05-20T05:08:59;11.60;99.90
62339;DHT22;48368;53.406;6.214;2023-05-20T05:11:24;11.70;99.90
62339;DHT22;48368;53.406;6.214;2023-05-20T05:13:51;11.70;99.90
62339;DHT22;48368;53.406;6.214;2023-05-20T05:16:16;11.70;99.90
62339;DHT22;48368;53.406;6.214;2023-05-20T05:18:42;11.80;99.90
62339;DHT22;48368;53.406;6.214;2023-05-20T05:21:07;11.90;99.90
62339;DHT22;48368;53.406;6.214;2023-05-20T05:23:33;12.00;99.90
62339;DHT22;48368;53.406;6.214;2023-05-20T05:25:59;12.30;99.90
62339;DHT22;48368;53.406;6.214;2023-05-20T05:28:25;12.50;99.90
62339;DHT22;48368;53.406;6.214;2023-05-20T05:30:53;12.80;99.90
62339;DHT22;48368;53.406;6.214;2023-05-20T05:33:20;13.00;99.90
62339;DHT22;48368;53.406;6.214;2023-05-20T05:35:46;13.20;99.90
62339;DHT22;48368;53.406;6.214;2023-05-20T05:38:12;13.30;99.90
62339;DHT22;48368;53.406;6.214;2023-05-20T05:40:38;13.40;99.90
62339;DHT22;48368;53.406;6.214;2023-05-20T05:43:03;13.50;99.90
62339;DHT22;48368;53.406;6.214;2023-05-20T05:45:29;13.40;99.90
62339;DHT22;48368;53.406;6.214;2023-05-20T05:47:57;13.30;99.90
62339;DHT22;48368;53.406;6.214;2023-05-20T05:50:23;13.30;99.90
62339;DHT22;48368;53.406;6.214;2023-05-20T05:52:51;13.50;99.90
62339;DHT22;48368;53.406;6.214;2023-05-20T05:55:17;13.40;99.90
62339;DHT22;48368;53.406;6.214;2023-05-20T05:57:42;13.50;99.90
62339;DHT22;48368;53.406;6.214;2023-05-20T06:00:08;13.40;99.90
62339;DHT22;48368;53.406;6.214;2023-05-20T06:02:35;13.50;99.90
62339;DHT22;48368;53.406;6.214;2023-05-20T06:05:02;13.60;99.90
62339;DHT22;48368;53.406;6.214;2023-05-20T06:07:28;13.60;99.90
62339;DHT22;48368;53.406;6.214;2023-05-20T06:09:54;13.80;99.90
62339;DHT22;48368;53.406;6.214;2023-05-20T06:12:19;13.90;99.90
62339;DHT22;48368;53.406;6.214;2023-05-20T06:14:46;14.00;99.90
62339;DHT22;48368;53.406;6.214;2023-05-20T06:17:12;13.90;99.90
62339;DHT22;48368;53.406;6.214;2023-05-20T06:19:38;14.00;99.90
62339;DHT22;48368;53.406;6.214;2023-05-20T06:22:03;14.00;99.90
62339;DHT22;48368;53.406;6.214;2023-05-20T06:24:29;14.10;99.90
62339;DHT22;48368;53.406;6.214;2023-05-20T06:26:55;14.00;99.90
62339;DHT22;48368;53.406;6.214;2023-05-20T06:29:21;14.20;99.90
62339;DHT22;48368;53.406;6.214;2023-05-20T06:31:50;14.40;99.90
62339;DHT22;48368;53.406;6.214;2023-05-20T06:34:25;14.40;99.90
62339;DHT22;48368;53.406;6.214;2023-05-20T06:36:51;14.50;99.90
62339;DHT22;48368;53.406;6.214;2023-05-20T06:39:17;14.30;99.90
62339;DHT22;48368;53.406;6.214;2023-05-20T06:41:42;14.40;99.90
62339;DHT22;48368;53.406;6.214;2023-05-20T06:44:08;14.40;99.90
62339;DHT22;48368;53.406;6.214;2023-05-20T06:46:34;14.40;99.90
62339;DHT22;48368;53.406;6.214;2023-05-20T06:49:00;14.50;99.90
62339;DHT22;48368;53.406;6.214;2023-05-20T06:51:26;14.30;99.90
62339;DHT22;48368;53.406;6.214;2023-05-20T06:53:52;14.60;99.90
62339;DHT22;48368;53.406;6.214;2023-05-20T06:56:18;14.70;99.90
62339;DHT22;48368;53.406;6.214;2023-05-20T06:58:44;14.80;99.90
62339;DHT22;48368;53.406;6.214;2023-05-20T07:01:10;14.90;99.90
62339;DHT22;48368;53.406;6.214;2023-05-20T07:03:36;14.90;99.90
62339;DHT22;48368;53.406;6.214;2023-05-20T07:06:02;14.80;99.90
62339;DHT22;48368;53.406;6.214;2023-05-20T07:08:28;14.90;99.90
62339;DHT22;48368;53.406;6.214;2023-05-20T07:10:59;15.00;99.90
62339;DHT22;48368;53.406;6.214;2023-05-20T07:13:25;15.00;99.90
62339;DHT22;48368;53.406;6.214;2023-05-20T07:15:51;15.20;99.90
62339;DHT22;48368;53.406;6.214;2023-05-20T07:18:17;15.20;99.90
62339;DHT22;48368;53.406;6.214;2023-05-20T07:20:43;15.30;99.90
62339;DHT22;48368;53.406;6.214;2023-05-20T07:23:09;15.10;99.90
62339;DHT22;48368;53.406;6.214;2023-05-20T07:25:35;15.20;99.90
62339;DHT22;48368;53.406;6.214;2023-05-20T07:28:00;15.40;99.90
62339;DHT22;48368;53.406;6.214;2023-05-20T07:30:26;15.50;99.90
62339;DHT22;48368;53.406;6.214;2023-05-20T07:32:52;15.70;99.90
62339;DHT22;48368;53.406;6.214;2023-05-20T07:35:18;15.50;99.90
62339;DHT22;48368;53.406;6.214;2023-05-20T07:37:43;15.60;99.90
62339;DHT22;48368;53.406;6.214;2023-05-20T07:40:09;15.50;99.90
62339;DHT22;48368;53.406;6.214;2023-05-20T07:42:35;15.50;99.90
62339;DHT22;48368;53.406;6.214;2023-05-20T07:45:01;15.60;99.90
62339;DHT22;48368;53.406;6.214;2023-05-20T07:47:27;15.80;99.90
62339;DHT22;48368;53.406;6.214;2023-05-20T07:49:55;15.80;99.90
62339;DHT22;48368;53.406;6.214;2023-05-20T07:52:21;15.90;99.90
62339;DHT22;48368;53.406;6.214;2023-05-20T07:54:46;15.80;99.90
62339;DHT22;48368;53.406;6.214;2023-05-20T07:57:12;15.90;99.90
62339;DHT22;48368;53.406;6.214;2023-05-20T07:59:38;16.00;99.90
62339;DHT22;48368;53.406;6.214;2023-05-20T08:02:04;15.90;99.90
62339;DHT22;48368;53.406;6.214;2023-05-20T08:04:33;16.00;99.90
62339;DHT22;48368;53.406;6.214;2023-05-20T08:06:59;15.90;99.90
62339;DHT22;48368;53.406;6.214;2023-05-20T08:09:25;15.90;99.90
62339;DHT22;48368;53.406;6.214;2023-05-20T08:11:50;15.80;99.90
62339;DHT22;48368;53.406;6.214;2023-05-20T08:14:16;15.90;99.90
62339;DHT22;48368;53.406;6.214;2023-05-20T08:16:42;15.90;99.90
62339;DHT22;48368;53.406;6.214;2023-05-20T08:19:08;15.90;99.90
62339;DHT22;48368;53.406;6.214;2023-05-20T08:21:33;16.10;99.90
62339;DHT22;48368;53.406;6.214;2023-05-20T08:24:03;16.30;99.90
62339;DHT22;48368;53.406;6.214;2023-05-20T08:26:29;16.00;99.90
62339;DHT22;48368;53.406;6.214;2023-05-20T08:28:54;16.30;99.90
62339;DHT22;48368;53.406;6.214;2023-05-20T08:31:20;16.30;99.90
62339;DHT22;48368;53.406;6.214;2023-05-20T08:33:46;16.00;99.90
62339;DHT22;48368;53.406;6.214;2023-05-20T08:36:12;16.10;99.90
62339;DHT22;48368;53.406;6.214;2023-05-20T08:38:38;16.10;99.90
62339;DHT22;48368;53.406;6.214;2023-05-20T08:41:04;16.10;99.90
62339;DHT22;48368;53.406;6.214;2023-05-20T08:43:29;15.80;99.90
62339;DHT22;48368;53.406;6.214;2023-05-20T08:45:56;16.10;99.90
62339;DHT22;48368;53.406;6.214;2023-05-20T08:48:25;16.10;99.90
62339;DHT22;48368;53.406;6.214;2023-05-20T08:50:57;16.10;99.90
62339;DHT22;48368;53.406;6.214;2023-05-20T08:53:23;16.10;99.90
62339;DHT22;48368;53.406;6.214;2023-05-20T08:55:58;15.90;99.90
62339;DHT22;48368;53.406;6.214;2023-05-20T08:58:24;15.80;99.90
62339;DHT22;48368;53.406;6.214;2023-05-20T09:00:50;15.80;99.90
62339;DHT22;48368;53.406;6.214;2023-05-20T09:03:20;15.90;99.90
62339;DHT22;48368;53.406;6.214;2023-05-20T09:05:47;16.10;99.90
62339;DHT22;48368;53.406;6.214;2023-05-20T09:08:13;16.10;99.90
62339;DHT22;48368;53.406;6.214;2023-05-20T09:10:46;16.20;99.90
62339;DHT22;48368;53.406;6.214;2023-05-20T09:13:11;15.90;99.90
62339;DHT22;48368;53.406;6.214;2023-05-20T09:15:37;16.00;99.90
62339;DHT22;48368;53.406;6.214;2023-05-20T09:18:05;15.80;99.90
62339;DHT22;48368;53.406;6.214;2023-05-20T09:20:33;15.80;99.90
62339;DHT22;48368;53.406;6.214;2023-05-20T09:23:04;16.00;99.90
62339;DHT22;48368;53.406;6.214;2023-05-20T09:25:31;15.70;99.90
62339;DHT22;48368;53.406;6.214;2023-05-20T09:27:57;15.60;99.90
62339;DHT22;48368;53.406;6.214;2023-05-20T09:30:23;15.80;99.90
62339;DHT22;48368;53.406;6.214;2023-05-20T09:32:57;16.00;99.90
62339;DHT22;48368;53.406;6.214;2023-05-20T09:35:24;15.60;99.90
62339;DHT22;48368;53.406;6.214;2023-05-20T09:38:00;15.80;99.90
62339;DHT22;48368;53.406;6.214;2023-05-20T09:40:29;16.10;99.90
62339;DHT22;48368;53.406;6.214;2023-05-20T09:43:05;16.20;99.90
62339;DHT22;48368;53.406;6.214;2023-05-20T09:45:36;16.00;99.90
62339;DHT22;48368;53.406;6.214;2023-05-20T09:48:03;16.00;99.90
62339;DHT22;48368;53.406;6.214;2023-05-20T09:50:31;15.90;99.90
62339;DHT22;48368;53.406;6.214;2023-05-20T09:53:01;16.20;99.90
62339;DHT22;48368;53.406;6.214;2023-05-20T09:55:27;16.10;99.90
62339;DHT22;48368;53.406;6.214;2023-05-20T09:57:56;16.10;99.90
62339;DHT22;48368;53.406;6.214;2023-05-20T10:00:23;16.20;99.90
62339;DHT22;48368;53.406;6.214;2023-05-20T10:02:52;16.20;99.90
62339;DHT22;48368;53.406;6.214;2023-05-20T10:05:37;15.90;99.90
62339;DHT22;48368;53.406;6.214;2023-05-20T10:08:36;16.00;99.90
62339;DHT22;48368;53.406;6.214;2023-05-20T10:11:22;15.90;99.90
62339;DHT22;48368;53.406;6.214;2023-05-20T10:16:43;16.20;99.90
62339;DHT22;48368;53.406;6.214;2023-05-20T10:19:26;16.20;99.90
62339;DHT22;48368;53.406;6.214;2023-05-20T10:21:57;16.10;99.90
62339;DHT22;48368;53.406;6.214;2023-05-20T10:24:29;16.20;99.90
62339;DHT22;48368;53.406;6.214;2023-05-20T10:26:57;16.30;99.90
62339;DHT22;48368;53.406;6.214;2023-05-20T10:29:23;16.40;99.90
62339;DHT22;48368;53.406;6.214;2023-05-20T10:31:50;16.10;99.90
62339;DHT22;48368;53.406;6.214;2023-05-20T10:34:17;16.20;99.90
62339;DHT22;48368;53.406;6.214;2023-05-20T10:36:57;16.00;99.90
62339;DHT22;48368;53.406;6.214;2023-05-20T10:39:31;16.20;99.90
62339;DHT22;48368;53.406;6.214;2023-05-20T10:42:12;16.40;99.90
62339;DHT22;48368;53.406;6.214;2023-05-20T10:44:44;16.10;99.90
62339;DHT22;48368;53.406;6.214;2023-05-20T10:47:13;16.10;99.90
62339;DHT22;48368;53.406;6.214;2023-05-20T10:49:43;16.00;99.90
62339;DHT22;48368;53.406;6.214;2023-05-20T10:52:09;15.90;99.90
62339;DHT22;48368;53.406;6.214;2023-05-20T10:54:41;15.90;99.90
62339;DHT22;48368;53.406;6.214;2023-05-20T10:57:10;15.90;99.90
62339;DHT22;48368;53.406;6.214;2023-05-20T10:59:36;16.20;99.90
62339;DHT22;48368;53.406;6.214;2023-05-20T11:02:03;16.20;99.90
62339;DHT22;48368;53.406;6.214;2023-05-20T11:04:30;16.20;99.90
62339;DHT22;48368;53.406;6.214;2023-05-20T11:06:57;16.40;99.90
62339;DHT22;48368;53.406;6.214;2023-05-20T11:09:23;16.40;99.90
62339;DHT22;48368;53.406;6.214;2023-05-20T11:11:53;16.40;99.90
62339;DHT22;48368;53.406;6.214;2023-05-20T11:14:20;16.10;99.90
62339;DHT22;48368;53.406;6.214;2023-05-20T11:16:52;16.30;99.90
62339;DHT22;48368;53.406;6.214;2023-05-20T11:19:23;16.40;99.90
62339;DHT22;48368;53.406;6.214;2023-05-20T11:21:49;16.30;99.90
62339;DHT22;48368;53.406;6.214;2023-05-20T11:24:25;16.20;99.90
62339;DHT22;48368;53.406;6.214;2023-05-20T11:26:55;16.40;99.90
62339;DHT22;48368;53.406;6.214;2023-05-20T11:29:21;16.30;99.90
62339;DHT22;48368;53.406;6.214;2023-05-20T11:31:50;16.30;99.90
62339;DHT22;48368;53.406;6.214;2023-05-20T11:34:19;16.30;99.90
62339;DHT22;48368;53.406;6.214;2023-05-20T11:36:46;16.50;99.90
62339;DHT22;48368;53.406;6.214;2023-05-20T11:39:13;16.70;99.90
62339;DHT22;48368;53.406;6.214;2023-05-20T11:41:41;16.40;99.90
62339;DHT22;48368;53.406;6.214;2023-05-20T11:44:10;16.40;99.90
62339;DHT22;48368;53.406;6.214;2023-05-20T11:46:46;16.60;99.90
62339;DHT22;48368;53.406;6.214;2023-05-20T11:49:15;16.60;99.90
62339;DHT22;48368;53.406;6.214;2023-05-20T11:51:42;16.40;99.90
62339;DHT22;48368;53.406;6.214;2023-05-20T11:54:08;16.20;99.90
62339;DHT22;48368;53.406;6.214;2023-05-20T11:56:38;16.50;99.90
62339;DHT22;48368;53.406;6.214;2023-05-20T11:59:07;16.50;99.90
62339;DHT22;48368;53.406;6.214;2023-05-20T12:01:38;16.80;99.90
62339;DHT22;48368;53.406;6.214;2023-05-20T12:04:23;16.70;99.90
62339;DHT22;48368;53.406;6.214;2023-05-20T12:06:49;16.40;99.90
62339;DHT22;48368;53.406;6.214;2023-05-20T12:09:18;16.50;99.90
62339;DHT22;48368;53.406;6.214;2023-05-20T12:11:44;16.30;99.90
62339;DHT22;48368;53.406;6.214;2023-05-20T12:14:13;16.00;99.90
62339;DHT22;48368;53.406;6.214;2023-05-20T12:16:38;16.10;99.90
62339;DHT22;48368;53.406;6.214;2023-05-20T12:19:04;16.10;99.90
62339;DHT22;48368;53.406;6.214;2023-05-20T12:21:39;16.20;99.90
62339;DHT22;48368;53.406;6.214;2023-05-20T12:24:05;16.20;99.90
62339;DHT22;48368;53.406;6.214;2023-05-20T12:26:32;16.50;99.90
62339;DHT22;48368;53.406;6.214;2023-05-20T12:28:59;16.20;99.90
62339;DHT22;48368;53.406;6.214;2023-05-20T12:31:25;16.10;99.90
62339;DHT22;48368;53.406;6.214;2023-05-20T12:33:51;15.90;99.90
62339;DHT22;48368;53.406;6.214;2023-05-20T12:36:16;16.10;99.90
62339;DHT22;48368;53.406;6.214;2023-05-20T12:38:43;15.80;99.90
62339;DHT22;48368;53.406;6.214;2023-05-20T12:41:09;16.00;99.90
62339;DHT22;48368;53.406;6.214;2023-05-20T12:43:35;15.90;99.90
62339;DHT22;48368;53.406;6.214;2023-05-20T12:46:01;15.90;99.90
62339;DHT22;48368;53.406;6.214;2023-05-20T12:48:28;16.10;99.90
62339;DHT22;48368;53.406;6.214;2023-05-20T12:50:53;16.10;99.90
62339;DHT22;48368;53.406;6.214;2023-05-20T12:53:19;16.40;99.90
62339;DHT22;48368;53.406;6.214;2023-05-20T12:55:45;16.40;99.90
62339;DHT22;48368;53.406;6.214;2023-05-20T12:58:10;16.40;99.90
62339;DHT22;48368;53.406;6.214;2023-05-20T13:00:36;16.70;99.90
62339;DHT22;48368;53.406;6.214;2023-05-20T13:03:02;16.30;99.90
62339;DHT22;48368;53.406;6.214;2023-05-20T13:05:27;16.40;99.90
62339;DHT22;48368;53.406;6.214;2023-05-20T13:07:56;16.30;99.90
62339;DHT22;48368;53.406;6.214;2023-05-20T13:10:21;16.50;99.90
62339;DHT22;48368;53.406;6.214;2023-05-20T13:12:47;16.80;99.90
62339;DHT22;48368;53.406;6.214;2023-05-20T13:15:13;16.70;99.90
62339;DHT22;48368;53.406;6.214;2023-05-20T13:17:42;16.60;99.90
62339;DHT22;48368;53.406;6.214;2023-05-20T13:20:08;16.70;99.90
62339;DHT22;48368;53.406;6.214;2023-05-20T13:22:35;16.90;99.90
62339;DHT22;48368;53.406;6.214;2023-05-20T13:25:01;17.00;99.90
62339;DHT22;48368;53.406;6.214;2023-05-20T13:27:27;17.00;99.90
62339;DHT22;48368;53.406;6.214;2023-05-20T13:29:55;17.20;99.90
62339;DHT22;48368;53.406;6.214;2023-05-20T13:32:20;17.30;99.90
62339;DHT22;48368;53.406;6.214;2023-05-20T13:34:46;17.00;99.90
62339;DHT22;48368;53.406;6.214;2023-05-20T13:37:12;17.10;99.90
62339;DHT22;48368;53.406;6.214;2023-05-20T13:39:37;17.10;99.90
62339;DHT22;48368;53.406;6.214;2023-05-20T13:42:03;17.30;99.90
62339;DHT22;48368;53.406;6.214;2023-05-20T13:44:29;17.10;99.90
62339;DHT22;48368;53.406;6.214;2023-05-20T13:46:55;17.10;99.90
62339;DHT22;48368;53.406;6.214;2023-05-20T13:49:20;16.90;99.90
62339;DHT22;48368;53.406;6.214;2023-05-20T13:51:46;17.20;99.90
62339;DHT22;48368;53.406;6.214;2023-05-20T13:54:12;17.50;99.90
62339;DHT22;48368;53.406;6.214;2023-05-20T13:56:38;17.80;99.90
62339;DHT22;48368;53.406;6.214;2023-05-20T13:59:04;17.60;99.90
62339;DHT22;48368;53.406;6.214;2023-05-20T14:01:30;17.40;99.90
62339;DHT22;48368;53.406;6.214;2023-05-20T14:04:04;17.50;99.90
62339;DHT22;48368;53.406;6.214;2023-05-20T14:06:31;17.20;99.90
62339;DHT22;48368;53.406;6.214;2023-05-20T14:08:57;17.10;99.90
62339;DHT22;48368;53.406;6.214;2023-05-20T14:11:23;17.30;99.90
62339;DHT22;48368;53.406;6.214;2023-05-20T14:13:57;17.30;99.90
62339;DHT22;48368;53.406;6.214;2023-05-20T14:16:23;17.30;99.90
62339;DHT22;48368;53.406;6.214;2023-05-20T14:18:49;17.40;99.90
62339;DHT22;48368;53.406;6.214;2023-05-20T14:21:14;17.20;99.90
62339;DHT22;48368;53.406;6.214;2023-05-20T14:23:40;17.20;99.90
62339;DHT22;48368;53.406;6.214;2023-05-20T14:26:09;17.10;99.90
62339;DHT22;48368;53.406;6.214;2023-05-20T14:28:35;17.00;99.90
62339;DHT22;48368;53.406;6.214;2023-05-20T14:31:00;17.20;99.90
62339;DHT22;48368;53.406;6.214;2023-05-20T14:33:26;17.40;99.90
62339;DHT22;48368;53.406;6.214;2023-05-20T14:35:51;17.50;99.90
62339;DHT22;48368;53.406;6.214;2023-05-20T14:38:17;17.20;99.90
62339;DHT22;48368;53.406;6.214;2023-05-20T14:40:45;17.50;99.90
62339;DHT22;48368;53.406;6.214;2023-05-20T14:43:10;17.60;99.90
62339;DHT22;48368;53.406;6.214;2023-05-20T14:45:36;17.70;99.90
62339;DHT22;48368;53.406;6.214;2023-05-20T14:48:01;17.50;99.90
62339;DHT22;48368;53.406;6.214;2023-05-20T14:50:27;17.80;99.90
62339;DHT22;48368;53.406;6.214;2023-05-20T14:52:53;17.50;99.90
62339;DHT22;48368;53.406;6.214;2023-05-20T14:55:18;17.50;99.90
62339;DHT22;48368;53.406;6.214;2023-05-20T14:57:44;17.50;99.90
62339;DHT22;48368;53.406;6.214;2023-05-20T15:00:11;17.20;99.90
62339;DHT22;48368;53.406;6.214;2023-05-20T15:02:37;17.50;99.90
62339;DHT22;48368;53.406;6.214;2023-05-20T15:05:03;17.30;99.90
62339;DHT22;48368;53.406;6.214;2023-05-20T15:07:29;17.40;99.90
62339;DHT22;48368;53.406;6.214;2023-05-20T15:09:55;17.30;99.90
62339;DHT22;48368;53.406;6.214;2023-05-20T15:12:24;17.50;99.90
62339;DHT22;48368;53.406;6.214;2023-05-20T15:14:50;17.30;99.90
62339;DHT22;48368;53.406;6.214;2023-05-20T15:17:15;17.50;99.90
62339;DHT22;48368;53.406;6.214;2023-05-20T15:19:41;17.50;99.90
62339;DHT22;48368;53.406;6.214;2023-05-20T15:22:07;17.30;99.90
62339;DHT22;48368;53.406;6.214;2023-05-20T15:24:38;17.00;99.90
62339;DHT22;48368;53.406;6.214;2023-05-20T15:27:04;17.10;99.90
62339;DHT22;48368;53.406;6.214;2023-05-20T15:29:30;17.10;99.90
62339;DHT22;48368;53.406;6.214;2023-05-20T15:31:59;16.90;99.90